sensor_id;sensor_type;location;lat;lon;timestamp;P1;durP1;ratioP1;P2;durP2;ratioP2
78542;SDS011;67836;52.430;14.446;2024-02-26T00:02:37;7.68;;;3.63;;
78542;SDS011;67836;52.430;14.446;2024-02-26T00:05:21;6.15;;;3.53;;
78542;SDS011;67836;52.430;14.446;2024-02-26T00:08:05;10.90;;;3.60;;
78542;SDS011;67836;52.430;14.446;2024-02-26T00:10:49;6.82;;;3.28;;
78542;SDS011;67836;52.430;14.446;2024-02-26T00:13:33;8.95;;;3.80;;
78542;SDS011;67836;52.430;14.446;2024-02-26T00:21:44;4.45;;;2.45;;
78542;SDS011;67836;52.430;14.446;2024-02-26T00:24:28;6.30;;;2.50;;
78542;SDS011;67836;52.430;14.446;2024-02-26T00:27:12;10.00;;;3.30;;
78542;SDS011;67836;52.430;14.446;2024-02-26T00:29:56;8.52;;;3.60;;
78542;SDS011;67836;52.430;14.446;2024-02-26T00:32:39;9.00;;;3.20;;
78542;SDS011;67836;52.430;14.446;2024-02-26T00:35:23;8.45;;;4.03;;
78542;SDS011;67836;52.430;14.446;2024-02-26T00:38:07;9.20;;;4.22;;
78542;SDS011;67836;52.430;14.446;2024-02-26T00:40:51;9.93;;;4.38;;
78542;SDS011;67836;52.430;14.446;2024-02-26T00:43:35;9.73;;;3.75;;
78542;SDS011;67836;52.430;14.446;2024-02-26T00:46:19;4.20;;;2.17;;
78542;SDS011;67836;52.430;14.446;2024-02-26T00:49:03;7.70;;;3.30;;
78542;SDS011;67836;52.430;14.446;2024-02-26T00:51:47;8.27;;;3.53;;
78542;SDS011;67836;52.430;14.446;2024-02-26T00:54:31;14.60;;;4.93;;
78542;SDS011;67836;52.430;14.446;2024-02-26T00:57:15;10.90;;;5.30;;
78542;SDS011;67836;52.430;14.446;2024-02-26T00:59:59;11.07;;;5.50;;
78542;SDS011;67836;52.430;14.446;2024-02-26T01:02:44;8.07;;;4.18;;
78542;SDS011;67836;52.430;14.446;2024-02-26T01:05:31;11.43;;;4.45;;
78542;SDS011;67836;52.430;14.446;2024-02-26T01:08:15;8.38;;;3.15;;
78542;SDS011;67836;52.430;14.446;2024-02-26T01:10:58;5.63;;;2.55;;
78542;SDS011;67836;52.430;14.446;2024-02-26T01:13:42;7.25;;;3.75;;
78542;SDS011;67836;52.430;14.446;2024-02-26T01:16:26;11.10;;;4.50;;
78542;SDS011;67836;52.430;14.446;2024-02-26T01:19:12;9.82;;;4.38;;
78542;SDS011;67836;52.430;14.446;2024-02-26T01:21:56;9.90;;;4.65;;
78542;SDS011;67836;52.430;14.446;2024-02-26T01:24:40;9.23;;;5.22;;
78542;SDS011;67836;52.430;14.446;2024-02-26T01:27:24;10.55;;;4.70;;
78542;SDS011;67836;52.430;14.446;2024-02-26T01:30:10;9.55;;;4.55;;
78542;SDS011;67836;52.430;14.446;2024-02-26T01:32:55;8.57;;;4.55;;
78542;SDS011;67836;52.430;14.446;2024-02-26T01:35:38;10.40;;;5.53;;
78542;SDS011;67836;52.430;14.446;2024-02-26T01:38:23;14.30;;;5.50;;
78542;SDS011;67836;52.430;14.446;2024-02-26T01:41:07;7.90;;;3.90;;
78542;SDS011;67836;52.430;14.446;2024-02-26T01:43:51;12.13;;;5.03;;
78542;SDS011;67836;52.430;14.446;2024-02-26T01:46:35;7.82;;;3.53;;
78542;SDS011;67836;52.430;14.446;2024-02-26T01:49:19;8.32;;;4.30;;
78542;SDS011;67836;52.430;14.446;2024-02-26T01:52:03;9.93;;;5.15;;
78542;SDS011;67836;52.430;14.446;2024-02-26T01:54:47;3.35;;;1.83;;
78542;SDS011;67836;52.430;14.446;2024-02-26T01:57:31;1.58;;;1.00;;
78542;SDS011;67836;52.430;14.446;2024-02-26T02:00:15;13.00;;;6.03;;
78542;SDS011;67836;52.430;14.446;2024-02-26T02:03:01;9.57;;;4.68;;
78542;SDS011;67836;52.430;14.446;2024-02-26T02:05:45;8.55;;;4.97;;
78542;SDS011;67836;52.430;14.446;2024-02-26T02:08:29;10.15;;;5.20;;
78542;SDS011;67836;52.430;14.446;2024-02-26T02:11:13;12.02;;;5.63;;
78542;SDS011;67836;52.430;14.446;2024-02-26T02:13:58;13.70;;;5.93;;
78542;SDS011;67836;52.430;14.446;2024-02-26T02:16:42;9.52;;;4.60;;
78542;SDS011;67836;52.430;14.446;2024-02-26T02:19:26;8.68;;;3.08;;
78542;SDS011;67836;52.430;14.446;2024-02-26T02:27:37;7.70;;;4.15;;
78542;SDS011;67836;52.430;14.446;2024-02-26T02:30:23;2.72;;;1.83;;
78542;SDS011;67836;52.430;14.446;2024-02-26T02:33:07;8.63;;;3.45;;
78542;SDS011;67836;52.430;14.446;2024-02-26T02:35:51;2.92;;;2.33;;
78542;SDS011;67836;52.430;14.446;2024-02-26T02:38:38;7.30;;;3.42;;
78542;SDS011;67836;52.430;14.446;2024-02-26T02:41:22;10.52;;;5.30;;
78542;SDS011;67836;52.430;14.446;2024-02-26T02:44:06;10.23;;;4.78;;
78542;SDS011;67836;52.430;14.446;2024-02-26T02:46:50;9.95;;;5.03;;
78542;SDS011;67836;52.430;14.446;2024-02-26T02:49:37;11.55;;;5.07;;
78542;SDS011;67836;52.430;14.446;2024-02-26T02:52:21;9.75;;;4.78;;
78542;SDS011;67836;52.430;14.446;2024-02-26T02:55:05;11.35;;;4.95;;
78542;SDS011;67836;52.430;14.446;2024-02-26T02:57:49;11.25;;;6.00;;
78542;SDS011;67836;52.430;14.446;2024-02-26T03:00:33;12.95;;;5.68;;
78542;SDS011;67836;52.430;14.446;2024-02-26T03:03:17;14.82;;;5.40;;
78542;SDS011;67836;52.430;14.446;2024-02-26T03:06:01;17.83;;;5.82;;
78542;SDS011;67836;52.430;14.446;2024-02-26T03:08:44;12.30;;;5.50;;
78542;SDS011;67836;52.430;14.446;2024-02-26T03:11:28;10.43;;;3.72;;
78542;SDS011;67836;52.430;14.446;2024-02-26T03:14:12;15.60;;;4.65;;
78542;SDS011;67836;52.430;14.446;2024-02-26T03:16:57;8.98;;;3.90;;
78542;SDS011;67836;52.430;14.446;2024-02-26T03:19:41;8.13;;;2.53;;
78542;SDS011;67836;52.430;14.446;2024-02-26T03:22:25;17.63;;;4.85;;
78542;SDS011;67836;52.430;14.446;2024-02-26T03:25:08;17.70;;;5.35;;
78542;SDS011;67836;52.430;14.446;2024-02-26T03:27:52;10.90;;;4.47;;
78542;SDS011;67836;52.430;14.446;2024-02-26T03:30:36;10.90;;;5.53;;
78542;SDS011;67836;52.430;14.446;2024-02-26T03:33:20;13.35;;;4.78;;
78542;SDS011;67836;52.430;14.446;2024-02-26T03:36:04;13.40;;;5.63;;
78542;SDS011;67836;52.430;14.446;2024-02-26T03:38:48;14.20;;;6.00;;
78542;SDS011;67836;52.430;14.446;2024-02-26T03:41:32;8.98;;;4.65;;
78542;SDS011;67836;52.430;14.446;2024-02-26T03:44:16;12.00;;;5.18;;
78542;SDS011;67836;52.430;14.446;2024-02-26T03:47:00;10.43;;;5.85;;
78542;SDS011;67836;52.430;14.446;2024-02-26T03:49:44;11.63;;;6.07;;
78542;SDS011;67836;52.430;14.446;2024-02-26T03:52:28;11.65;;;5.72;;
78542;SDS011;67836;52.430;14.446;2024-02-26T03:55:11;12.98;;;5.70;;
78542;SDS011;67836;52.430;14.446;2024-02-26T03:57:55;12.30;;;5.22;;
78542;SDS011;67836;52.430;14.446;2024-02-26T04:00:39;23.33;;;5.93;;
78542;SDS011;67836;52.430;14.446;2024-02-26T04:03:23;16.38;;;5.35;;
78542;SDS011;67836;52.430;14.446;2024-02-26T04:06:08;8.68;;;4.38;;
78542;SDS011;67836;52.430;14.446;2024-02-26T04:08:53;10.85;;;5.05;;
78542;SDS011;67836;52.430;14.446;2024-02-26T04:11:36;14.30;;;4.75;;
78542;SDS011;67836;52.430;14.446;2024-02-26T04:14:20;10.73;;;4.07;;
78542;SDS011;67836;52.430;14.446;2024-02-26T04:17:05;10.52;;;5.25;;
78542;SDS011;67836;52.430;14.446;2024-02-26T04:19:48;14.65;;;4.68;;
78542;SDS011;67836;52.430;14.446;2024-02-26T04:22:32;12.52;;;4.60;;
78542;SDS011;67836;52.430;14.446;2024-02-26T04:25:17;13.52;;;5.10;;
78542;SDS011;67836;52.430;14.446;2024-02-26T04:28:00;17.08;;;6.07;;
78542;SDS011;67836;52.430;14.446;2024-02-26T04:30:44;13.13;;;6.22;;
78542;SDS011;67836;52.430;14.446;2024-02-26T04:33:28;12.43;;;6.22;;
78542;SDS011;67836;52.430;14.446;2024-02-26T04:36:15;11.00;;;4.82;;
78542;SDS011;67836;52.430;14.446;2024-02-26T04:38:59;19.05;;;5.30;;
78542;SDS011;67836;52.430;14.446;2024-02-26T04:41:43;9.52;;;4.38;;
78542;SDS011;67836;52.430;14.446;2024-02-26T04:44:27;11.27;;;5.82;;
78542;SDS011;67836;52.430;14.446;2024-02-26T04:47:11;10.07;;;4.55;;
78542;SDS011;67836;52.430;14.446;2024-02-26T04:49:55;10.00;;;5.53;;
78542;SDS011;67836;52.430;14.446;2024-02-26T04:52:39;8.85;;;4.22;;
78542;SDS011;67836;52.430;14.446;2024-02-26T04:55:23;10.77;;;5.07;;
78542;SDS011;67836;52.430;14.446;2024-02-26T04:58:07;11.32;;;5.57;;
78542;SDS011;67836;52.430;14.446;2024-02-26T05:00:51;13.30;;;5.45;;
78542;SDS011;67836;52.430;14.446;2024-02-26T05:03:34;10.48;;;5.63;;
78542;SDS011;67836;52.430;14.446;2024-02-26T05:06:18;7.97;;;4.53;;
78542;SDS011;67836;52.430;14.446;2024-02-26T05:09:02;6.05;;;3.67;;
78542;SDS011;67836;52.430;14.446;2024-02-26T05:11:47;12.65;;;6.15;;
78542;SDS011;67836;52.430;14.446;2024-02-26T05:14:31;11.40;;;5.80;;
78542;SDS011;67836;52.430;14.446;2024-02-26T05:17:15;10.57;;;6.00;;
78542;SDS011;67836;52.430;14.446;2024-02-26T05:19:59;11.05;;;6.07;;
78542;SDS011;67836;52.430;14.446;2024-02-26T05:22:42;10.40;;;5.43;;
78542;SDS011;67836;52.430;14.446;2024-02-26T05:25:26;11.80;;;7.38;;
78542;SDS011;67836;52.430;14.446;2024-02-26T05:28:10;12.23;;;6.50;;
78542;SDS011;67836;52.430;14.446;2024-02-26T05:30:54;15.75;;;6.82;;
78542;SDS011;67836;52.430;14.446;2024-02-26T05:33:38;13.88;;;6.70;;
78542;SDS011;67836;52.430;14.446;2024-02-26T05:36:22;13.20;;;5.60;;
78542;SDS011;67836;52.430;14.446;2024-02-26T05:39:07;2.80;;;2.10;;
78542;SDS011;67836;52.430;14.446;2024-02-26T05:41:51;11.80;;;5.07;;
78542;SDS011;67836;52.430;14.446;2024-02-26T05:44:35;10.77;;;5.47;;
78542;SDS011;67836;52.430;14.446;2024-02-26T05:47:19;11.77;;;4.95;;
78542;SDS011;67836;52.430;14.446;2024-02-26T05:50:03;14.98;;;6.68;;
78542;SDS011;67836;52.430;14.446;2024-02-26T05:52:46;14.60;;;6.40;;
78542;SDS011;67836;52.430;14.446;2024-02-26T05:55:30;12.65;;;5.53;;
78542;SDS011;67836;52.430;14.446;2024-02-26T05:58:14;12.00;;;5.35;;
78542;SDS011;67836;52.430;14.446;2024-02-26T06:00:58;13.13;;;5.57;;
78542;SDS011;67836;52.430;14.446;2024-02-26T06:03:43;14.90;;;6.38;;
78542;SDS011;67836;52.430;14.446;2024-02-26T06:06:27;9.70;;;4.72;;
78542;SDS011;67836;52.430;14.446;2024-02-26T06:09:11;12.80;;;5.55;;
78542;SDS011;67836;52.430;14.446;2024-02-26T06:11:55;7.00;;;4.22;;
78542;SDS011;67836;52.430;14.446;2024-02-26T06:14:39;8.27;;;4.78;;
78542;SDS011;67836;52.430;14.446;2024-02-26T06:17:23;17.40;;;7.70;;
78542;SDS011;67836;52.430;14.446;2024-02-26T06:22:55;43.17;;;8.20;;
78542;SDS011;67836;52.430;14.446;2024-02-26T06:25:39;25.35;;;6.93;;
78542;SDS011;67836;52.430;14.446;2024-02-26T06:28:22;17.20;;;5.20;;
78542;SDS011;67836;52.430;14.446;2024-02-26T06:31:07;16.83;;;6.90;;
78542;SDS011;67836;52.430;14.446;2024-02-26T06:33:50;12.77;;;6.80;;
78542;SDS011;67836;52.430;14.446;2024-02-26T06:36:34;14.43;;;6.50;;
78542;SDS011;67836;52.430;14.446;2024-02-26T06:39:18;17.45;;;7.88;;
78542;SDS011;67836;52.430;14.446;2024-02-26T06:42:02;17.67;;;8.30;;
78542;SDS011;67836;52.430;14.446;2024-02-26T06:44:46;16.23;;;8.23;;
78542;SDS011;67836;52.430;14.446;2024-02-26T06:47:31;5.55;;;3.45;;
78542;SDS011;67836;52.430;14.446;2024-02-26T06:50:14;24.90;;;8.13;;
78542;SDS011;67836;52.430;14.446;2024-02-26T06:52:58;14.70;;;7.18;;
78542;SDS011;67836;52.430;14.446;2024-02-26T06:55:42;14.38;;;6.85;;
78542;SDS011;67836;52.430;14.446;2024-02-26T06:58:26;15.80;;;7.30;;
78542;SDS011;67836;52.430;14.446;2024-02-26T07:01:11;13.40;;;7.05;;
78542;SDS011;67836;52.430;14.446;2024-02-26T07:03:55;10.55;;;5.85;;
78542;SDS011;67836;52.430;14.446;2024-02-26T07:06:40;17.20;;;7.55;;
78542;SDS011;67836;52.430;14.446;2024-02-26T07:09:25;13.25;;;5.95;;
78542;SDS011;67836;52.430;14.446;2024-02-26T07:12:09;15.25;;;7.43;;
78542;SDS011;67836;52.430;14.446;2024-02-26T07:14:53;16.38;;;9.32;;
78542;SDS011;67836;52.430;14.446;2024-02-26T07:17:37;8.60;;;4.70;;
78542;SDS011;67836;52.430;14.446;2024-02-26T07:20:21;14.13;;;6.65;;
78542;SDS011;67836;52.430;14.446;2024-02-26T07:23:05;14.35;;;7.53;;
78542;SDS011;67836;52.430;14.446;2024-02-26T07:25:50;8.80;;;5.22;;
78542;SDS011;67836;52.430;14.446;2024-02-26T07:28:36;12.68;;;6.15;;
78542;SDS011;67836;52.430;14.446;2024-02-26T07:31:20;15.07;;;8.02;;
78542;SDS011;67836;52.430;14.446;2024-02-26T07:34:04;13.43;;;6.32;;
78542;SDS011;67836;52.430;14.446;2024-02-26T07:36:48;14.95;;;7.57;;
78542;SDS011;67836;52.430;14.446;2024-02-26T07:39:32;15.23;;;7.43;;
78542;SDS011;67836;52.430;14.446;2024-02-26T07:44:59;17.38;;;8.50;;
78542;SDS011;67836;52.430;14.446;2024-02-26T07:47:43;18.08;;;9.00;;
78542;SDS011;67836;52.430;14.446;2024-02-26T07:50:27;18.02;;;8.73;;
78542;SDS011;67836;52.430;14.446;2024-02-26T07:53:11;20.88;;;8.63;;
78542;SDS011;67836;52.430;14.446;2024-02-26T07:55:55;18.17;;;9.25;;
78542;SDS011;67836;52.430;14.446;2024-02-26T07:58:39;15.57;;;8.15;;
78542;SDS011;67836;52.430;14.446;2024-02-26T08:01:22;21.00;;;11.93;;
78542;SDS011;67836;52.430;14.446;2024-02-26T08:04:06;14.88;;;7.43;;
78542;SDS011;67836;52.430;14.446;2024-02-26T08:06:50;13.10;;;5.50;;
78542;SDS011;67836;52.430;14.446;2024-02-26T08:09:34;16.45;;;8.23;;
78542;SDS011;67836;52.430;14.446;2024-02-26T08:15:01;14.93;;;7.63;;
78542;SDS011;67836;52.430;14.446;2024-02-26T08:17:46;13.05;;;6.43;;
78542;SDS011;67836;52.430;14.446;2024-02-26T08:20:31;12.65;;;7.05;;
78542;SDS011;67836;52.430;14.446;2024-02-26T08:23:15;15.93;;;8.60;;
78542;SDS011;67836;52.430;14.446;2024-02-26T08:25:59;11.82;;;5.57;;
78542;SDS011;67836;52.430;14.446;2024-02-26T08:31:28;13.32;;;6.20;;
78542;SDS011;67836;52.430;14.446;2024-02-26T08:34:11;15.82;;;8.65;;
78542;SDS011;67836;52.430;14.446;2024-02-26T08:36:55;13.82;;;6.82;;
78542;SDS011;67836;52.430;14.446;2024-02-26T08:39:39;15.52;;;8.10;;
78542;SDS011;67836;52.430;14.446;2024-02-26T08:42:23;17.00;;;8.40;;
78542;SDS011;67836;52.430;14.446;2024-02-26T08:45:08;12.35;;;6.57;;
78542;SDS011;67836;52.430;14.446;2024-02-26T08:47:52;22.95;;;9.23;;
78542;SDS011;67836;52.430;14.446;2024-02-26T08:50:36;23.35;;;9.10;;
78542;SDS011;67836;52.430;14.446;2024-02-26T08:53:20;19.80;;;8.30;;
78542;SDS011;67836;52.430;14.446;2024-02-26T08:56:04;12.50;;;6.45;;
78542;SDS011;67836;52.430;14.446;2024-02-26T08:58:49;22.38;;;9.00;;
78542;SDS011;67836;52.430;14.446;2024-02-26T09:01:34;19.80;;;8.35;;
78542;SDS011;67836;52.430;14.446;2024-02-26T09:04:18;25.52;;;10.90;;
78542;SDS011;67836;52.430;14.446;2024-02-26T09:07:02;17.85;;;9.23;;
78542;SDS011;67836;52.430;14.446;2024-02-26T09:09:46;28.65;;;11.35;;
78542;SDS011;67836;52.430;14.446;2024-02-26T09:12:30;17.73;;;9.60;;
78542;SDS011;67836;52.430;14.446;2024-02-26T09:15:14;30.83;;;10.13;;
78542;SDS011;67836;52.430;14.446;2024-02-26T09:17:57;16.88;;;7.18;;
78542;SDS011;67836;52.430;14.446;2024-02-26T09:20:41;20.65;;;8.82;;
78542;SDS011;67836;52.430;14.446;2024-02-26T09:26:09;26.85;;;10.25;;
78542;SDS011;67836;52.430;14.446;2024-02-26T09:28:52;12.30;;;7.30;;
78542;SDS011;67836;52.430;14.446;2024-02-26T09:31:36;16.98;;;9.45;;
78542;SDS011;67836;52.430;14.446;2024-02-26T09:37:04;15.15;;;8.07;;
78542;SDS011;67836;52.430;14.446;2024-02-26T09:39:48;20.40;;;11.52;;
78542;SDS011;67836;52.430;14.446;2024-02-26T09:42:32;38.00;;;12.38;;
78542;SDS011;67836;52.430;14.446;2024-02-26T09:45:21;27.42;;;13.27;;
78542;SDS011;67836;52.430;14.446;2024-02-26T09:48:05;15.48;;;8.02;;
78542;SDS011;67836;52.430;14.446;2024-02-26T09:50:52;16.75;;;7.38;;
78542;SDS011;67836;52.430;14.446;2024-02-26T09:53:35;27.40;;;11.90;;
78542;SDS011;67836;52.430;14.446;2024-02-26T09:56:23;27.27;;;12.88;;
78542;SDS011;67836;52.430;14.446;2024-02-26T09:59:10;20.90;;;11.35;;
78542;SDS011;67836;52.430;14.446;2024-02-26T10:01:54;20.13;;;9.57;;
78542;SDS011;67836;52.430;14.446;2024-02-26T10:04:42;24.45;;;12.48;;
78542;SDS011;67836;52.430;14.446;2024-02-26T10:07:26;18.23;;;10.40;;
78542;SDS011;67836;52.430;14.446;2024-02-26T10:10:10;23.10;;;11.82;;
78542;SDS011;67836;52.430;14.446;2024-02-26T10:12:53;25.17;;;13.60;;
78542;SDS011;67836;52.430;14.446;2024-02-26T10:18:22;20.90;;;9.20;;
78542;SDS011;67836;52.430;14.446;2024-02-26T10:21:06;19.17;;;9.05;;
78542;SDS011;67836;52.430;14.446;2024-02-26T10:23:50;30.58;;;14.15;;
78542;SDS011;67836;52.430;14.446;2024-02-26T10:26:34;16.45;;;9.07;;
78542;SDS011;67836;52.430;14.446;2024-02-26T10:29:19;32.80;;;18.35;;
78542;SDS011;67836;52.430;14.446;2024-02-26T10:32:03;34.25;;;19.90;;
78542;SDS011;67836;52.430;14.446;2024-02-26T10:34:47;32.15;;;18.33;;
78542;SDS011;67836;52.430;14.446;2024-02-26T10:37:31;25.45;;;14.80;;
78542;SDS011;67836;52.430;14.446;2024-02-26T10:40:17;35.60;;;18.60;;
78542;SDS011;67836;52.430;14.446;2024-02-26T10:43:01;19.45;;;10.40;;
78542;SDS011;67836;52.430;14.446;2024-02-26T10:45:46;18.25;;;10.02;;
78542;SDS011;67836;52.430;14.446;2024-02-26T10:48:31;22.77;;;12.45;;
78542;SDS011;67836;52.430;14.446;2024-02-26T10:51:14;18.27;;;8.95;;
78542;SDS011;67836;52.430;14.446;2024-02-26T10:53:59;33.28;;;17.45;;
78542;SDS011;67836;52.430;14.446;2024-02-26T10:56:48;23.05;;;11.95;;
78542;SDS011;67836;52.430;14.446;2024-02-26T10:59:33;32.25;;;16.05;;
78542;SDS011;67836;52.430;14.446;2024-02-26T11:02:18;22.50;;;12.85;;
78542;SDS011;67836;52.430;14.446;2024-02-26T11:05:03;33.20;;;17.98;;
78542;SDS011;67836;52.430;14.446;2024-02-26T11:07:47;34.85;;;15.45;;
78542;SDS011;67836;52.430;14.446;2024-02-26T11:10:33;37.08;;;18.90;;
78542;SDS011;67836;52.430;14.446;2024-02-26T11:13:18;27.73;;;12.35;;
78542;SDS011;67836;52.430;14.446;2024-02-26T11:16:02;29.88;;;16.73;;
78542;SDS011;67836;52.430;14.446;2024-02-26T11:18:46;39.80;;;19.90;;
78542;SDS011;67836;52.430;14.446;2024-02-26T11:21:31;16.45;;;10.18;;
78542;SDS011;67836;52.430;14.446;2024-02-26T11:24:23;22.52;;;11.77;;
78542;SDS011;67836;52.430;14.446;2024-02-26T11:29:51;25.90;;;14.60;;
78542;SDS011;67836;52.430;14.446;2024-02-26T11:32:36;29.70;;;18.45;;
78542;SDS011;67836;52.430;14.446;2024-02-26T11:35:21;33.85;;;21.85;;
78542;SDS011;67836;52.430;14.446;2024-02-26T11:38:05;25.40;;;13.00;;
78542;SDS011;67836;52.430;14.446;2024-02-26T11:40:50;34.65;;;17.60;;
78542;SDS011;67836;52.430;14.446;2024-02-26T11:43:49;22.40;;;13.13;;
78542;SDS011;67836;52.430;14.446;2024-02-26T11:46:38;21.85;;;11.40;;
78542;SDS011;67836;52.430;14.446;2024-02-26T11:52:13;26.77;;;17.88;;
78542;SDS011;67836;52.430;14.446;2024-02-26T11:54:57;21.60;;;13.55;;
78542;SDS011;67836;52.430;14.446;2024-02-26T11:57:40;20.70;;;12.13;;
78542;SDS011;67836;52.430;14.446;2024-02-26T12:03:08;21.90;;;12.45;;
78542;SDS011;67836;52.430;14.446;2024-02-26T12:05:53;25.00;;;15.50;;
78542;SDS011;67836;52.430;14.446;2024-02-26T12:08:38;18.55;;;10.68;;
78542;SDS011;67836;52.430;14.446;2024-02-26T12:11:22;23.58;;;13.88;;
78542;SDS011;67836;52.430;14.446;2024-02-26T12:14:07;25.38;;;15.40;;
78542;SDS011;67836;52.430;14.446;2024-02-26T12:16:51;26.40;;;18.83;;
78542;SDS011;67836;52.430;14.446;2024-02-26T12:19:36;18.10;;;9.80;;
78542;SDS011;67836;52.430;14.446;2024-02-26T12:22:20;24.00;;;17.15;;
78542;SDS011;67836;52.430;14.446;2024-02-26T12:25:04;24.55;;;18.23;;
78542;SDS011;67836;52.430;14.446;2024-02-26T12:27:49;24.05;;;14.02;;
78542;SDS011;67836;52.430;14.446;2024-02-26T12:30:33;23.42;;;14.48;;
78542;SDS011;67836;52.430;14.446;2024-02-26T12:33:18;25.75;;;15.27;;
78542;SDS011;67836;52.430;14.446;2024-02-26T12:36:02;24.15;;;16.77;;
78542;SDS011;67836;52.430;14.446;2024-02-26T12:38:46;24.05;;;15.13;;
78542;SDS011;67836;52.430;14.446;2024-02-26T12:41:29;23.77;;;14.70;;
78542;SDS011;67836;52.430;14.446;2024-02-26T12:44:13;21.67;;;13.02;;
78542;SDS011;67836;52.430;14.446;2024-02-26T12:47:01;20.83;;;11.73;;
78542;SDS011;67836;52.430;14.446;2024-02-26T12:49:47;22.42;;;14.02;;
78542;SDS011;67836;52.430;14.446;2024-02-26T12:52:32;18.27;;;11.18;;
78542;SDS011;67836;52.430;14.446;2024-02-26T12:55:17;22.75;;;12.23;;
78542;SDS011;67836;52.430;14.446;2024-02-26T12:58:02;20.95;;;14.20;;
78542;SDS011;67836;52.430;14.446;2024-02-26T13:00:45;19.13;;;12.82;;
78542;SDS011;67836;52.430;14.446;2024-02-26T13:03:34;19.90;;;13.00;;
78542;SDS011;67836;52.430;14.446;2024-02-26T13:06:19;15.13;;;8.88;;
78542;SDS011;67836;52.430;14.446;2024-02-26T13:09:05;18.27;;;11.75;;
78542;SDS011;67836;52.430;14.446;2024-02-26T13:11:53;14.90;;;8.98;;
78542;SDS011;67836;52.430;14.446;2024-02-26T13:14:37;18.95;;;10.93;;
78542;SDS011;67836;52.430;14.446;2024-02-26T13:17:21;17.23;;;10.85;;
78542;SDS011;67836;52.430;14.446;2024-02-26T13:20:07;18.67;;;9.25;;
78542;SDS011;67836;52.430;14.446;2024-02-26T13:22:59;14.27;;;8.27;;
78542;SDS011;67836;52.430;14.446;2024-02-26T13:25:43;17.42;;;10.38;;
78542;SDS011;67836;52.430;14.446;2024-02-26T13:28:26;14.32;;;8.05;;
78542;SDS011;67836;52.430;14.446;2024-02-26T13:31:13;13.15;;;7.35;;
78542;SDS011;67836;52.430;14.446;2024-02-26T13:33:57;17.10;;;10.10;;
78542;SDS011;67836;52.430;14.446;2024-02-26T13:39:25;13.73;;;7.15;;
78542;SDS011;67836;52.430;14.446;2024-02-26T13:42:09;13.93;;;7.95;;
78542;SDS011;67836;52.430;14.446;2024-02-26T13:44:55;16.02;;;10.63;;
78542;SDS011;67836;52.430;14.446;2024-02-26T13:47:39;17.13;;;9.75;;
78542;SDS011;67836;52.430;14.446;2024-02-26T13:50:24;12.85;;;8.18;;
78542;SDS011;67836;52.430;14.446;2024-02-26T13:53:07;18.98;;;9.57;;
78542;SDS011;67836;52.430;14.446;2024-02-26T13:55:51;14.50;;;9.18;;
78542;SDS011;67836;52.430;14.446;2024-02-26T13:58:35;16.42;;;8.70;;
78542;SDS011;67836;52.430;14.446;2024-02-26T14:01:19;13.25;;;7.88;;
78542;SDS011;67836;52.430;14.446;2024-02-26T14:04:03;17.23;;;8.63;;
78542;SDS011;67836;52.430;14.446;2024-02-26T14:06:48;17.02;;;10.55;;
78542;SDS011;67836;52.430;14.446;2024-02-26T14:09:32;12.80;;;7.03;;
78542;SDS011;67836;52.430;14.446;2024-02-26T14:12:16;12.38;;;7.95;;
78542;SDS011;67836;52.430;14.446;2024-02-26T14:15:00;12.43;;;6.63;;
78542;SDS011;67836;52.430;14.446;2024-02-26T14:17:47;11.88;;;6.72;;
78542;SDS011;67836;52.430;14.446;2024-02-26T14:20:36;16.52;;;8.90;;
78542;SDS011;67836;52.430;14.446;2024-02-26T14:23:20;13.90;;;8.10;;
78542;SDS011;67836;52.430;14.446;2024-02-26T14:26:04;14.13;;;6.85;;
78542;SDS011;67836;52.430;14.446;2024-02-26T14:28:48;13.05;;;8.23;;
78542;SDS011;67836;52.430;14.446;2024-02-26T14:31:32;12.63;;;6.10;;
78542;SDS011;67836;52.430;14.446;2024-02-26T14:34:16;15.00;;;7.22;;
78542;SDS011;67836;52.430;14.446;2024-02-26T14:37:02;10.80;;;5.80;;
78542;SDS011;67836;52.430;14.446;2024-02-26T14:39:46;10.05;;;4.85;;
78542;SDS011;67836;52.430;14.446;2024-02-26T14:42:32;10.30;;;6.55;;
78542;SDS011;67836;52.430;14.446;2024-02-26T14:45:15;12.55;;;6.30;;
78542;SDS011;67836;52.430;14.446;2024-02-26T14:48:00;10.63;;;5.72;;
78542;SDS011;67836;52.430;14.446;2024-02-26T14:53:28;13.20;;;6.03;;
78542;SDS011;67836;52.430;14.446;2024-02-26T14:56:12;9.88;;;5.90;;
78542;SDS011;67836;52.430;14.446;2024-02-26T14:58:56;13.52;;;7.50;;
78542;SDS011;67836;52.430;14.446;2024-02-26T15:01:39;11.60;;;6.03;;
78542;SDS011;67836;52.430;14.446;2024-02-26T15:04:24;15.73;;;9.80;;
78542;SDS011;67836;52.430;14.446;2024-02-26T15:07:08;14.00;;;8.02;;
78542;SDS011;67836;52.430;14.446;2024-02-26T15:09:51;15.18;;;7.50;;
78542;SDS011;67836;52.430;14.446;2024-02-26T15:12:40;15.52;;;8.35;;
78542;SDS011;67836;52.430;14.446;2024-02-26T15:15:24;12.13;;;6.88;;
78542;SDS011;67836;52.430;14.446;2024-02-26T15:18:08;15.65;;;7.75;;
78542;SDS011;67836;52.430;14.446;2024-02-26T15:20:53;15.45;;;8.52;;
78542;SDS011;67836;52.430;14.446;2024-02-26T15:23:38;15.18;;;8.32;;
78542;SDS011;67836;52.430;14.446;2024-02-26T15:26:21;21.27;;;12.43;;
78542;SDS011;67836;52.430;14.446;2024-02-26T15:29:06;13.93;;;7.22;;
78542;SDS011;67836;52.430;14.446;2024-02-26T15:31:50;13.95;;;7.55;;
78542;SDS011;67836;52.430;14.446;2024-02-26T15:34:34;17.42;;;10.30;;
78542;SDS011;67836;52.430;14.446;2024-02-26T15:40:01;15.18;;;8.85;;
78542;SDS011;67836;52.430;14.446;2024-02-26T15:42:47;19.33;;;12.10;;
78542;SDS011;67836;52.430;14.446;2024-02-26T15:45:31;15.38;;;8.52;;
78542;SDS011;67836;52.430;14.446;2024-02-26T15:48:17;15.48;;;8.38;;
78542;SDS011;67836;52.430;14.446;2024-02-26T15:51:00;22.30;;;11.32;;
78542;SDS011;67836;52.430;14.446;2024-02-26T15:53:44;15.55;;;9.52;;
78542;SDS011;67836;52.430;14.446;2024-02-26T15:56:28;15.93;;;8.80;;
78542;SDS011;67836;52.430;14.446;2024-02-26T15:59:12;16.90;;;9.65;;
78542;SDS011;67836;52.430;14.446;2024-02-26T16:01:57;17.95;;;10.45;;
78542;SDS011;67836;52.430;14.446;2024-02-26T16:04:40;15.85;;;9.52;;
78542;SDS011;67836;52.430;14.446;2024-02-26T16:07:27;20.05;;;11.50;;
78542;SDS011;67836;52.430;14.446;2024-02-26T16:10:13;21.42;;;12.23;;
78542;SDS011;67836;52.430;14.446;2024-02-26T16:12:58;19.33;;;11.48;;
78542;SDS011;67836;52.430;14.446;2024-02-26T16:15:48;18.13;;;8.90;;
78542;SDS011;67836;52.430;14.446;2024-02-26T16:18:33;17.98;;;11.80;;
78542;SDS011;67836;52.430;14.446;2024-02-26T16:21:18;18.70;;;9.70;;
78542;SDS011;67836;52.430;14.446;2024-02-26T16:24:02;16.20;;;9.13;;
78542;SDS011;67836;52.430;14.446;2024-02-26T16:29:30;19.95;;;11.18;;
78542;SDS011;67836;52.430;14.446;2024-02-26T16:32:14;20.02;;;12.15;;
78542;SDS011;67836;52.430;14.446;2024-02-26T16:34:58;20.55;;;10.88;;
78542;SDS011;67836;52.430;14.446;2024-02-26T16:37:42;14.75;;;7.85;;
78542;SDS011;67836;52.430;14.446;2024-02-26T16:40:26;21.50;;;13.05;;
78542;SDS011;67836;52.430;14.446;2024-02-26T16:43:10;21.05;;;12.43;;
78542;SDS011;67836;52.430;14.446;2024-02-26T16:45:54;23.90;;;12.65;;
78542;SDS011;67836;52.430;14.446;2024-02-26T16:48:38;23.42;;;13.82;;
78542;SDS011;67836;52.430;14.446;2024-02-26T16:51:22;15.93;;;8.32;;